Time;durP1;ratioP1;P1;durP2;ratioP2;P2;SDS_P1;SDS_P2;PMS_P1;PMS_P2;Temp;Humidity;BMP_temperature;BMP_pressure;BME280_temperature;BME280_humidity;BME280_pressure;Samples;Min_cycle;Max_cycle;Signal;HPM_P1;HPM_P2
2021/10/28 00:14:29;;;;;;;55.35;25.20;;;;;;;;;;5020804;28;20052;-83
2021/10/28 00:16:58;;;;;;;51.50;25.25;;;;;;;;;;5018428;28;20057;-83
2021/10/28 00:19:27;;;;;;;51.35;26.23;;;;;;;;;;5017643;28;20132;-84
2021/10/28 00:21:58;;;;;;;55.80;25.63;;;;;;;;;;5019277;28;20049;-83
2021/10/28 00:24:28;;;;;;;51.42;24.92;;;;;;;;;;5019211;28;20046;-83
2021/10/28 00:26:55;;;;;;;46.50;24.38;;;;;;;;;;5019292;28;20057;-83
2021/10/28 00:29:26;;;;;;;50.65;25.13;;;;;;;;;;5018465;28;20049;-84
2021/10/28 00:31:56;;;;;;;53.00;25.83;;;;;;;;;;5019720;28;20054;-83
2021/10/28 00:34:24;;;;;;;51.53;25.85;;;;;;;;;;5026129;28;20050;-83
2021/10/28 00:36:52;;;;;;;52.13;24.58;;;;;;;;;;5030458;28;20115;-83
2021/10/28 00:39:21;;;;;;;51.40;25.02;;;;;;;;;;5028775;28;20064;-83
2021/10/28 00:41:49;;;;;;;54.58;27.45;;;;;;;;;;5028873;28;20046;-86
2021/10/28 00:44:18;;;;;;;57.05;29.50;;;;;;;;;;5028370;28;20077;-85
2021/10/28 00:46:46;;;;;;;55.47;26.95;;;;;;;;;;5027173;28;20041;-82
2021/10/28 00:49:14;;;;;;;55.45;25.98;;;;;;;;;;5026371;28;20057;-85
2021/10/28 00:51:48;;;;;;;54.00;27.60;;;;;;;;;;5024281;28;20058;-85
2021/10/28 00:54:21;;;;;;;49.45;24.95;;;;;;;;;;5023525;28;20045;-85
2021/10/28 00:56:50;;;;;;;52.00;26.13;;;;;;;;;;5022455;28;20050;-84
2021/10/28 00:59:18;;;;;;;47.22;24.30;;;;;;;;;;5023005;28;20058;-84
2021/10/28 01:01:46;;;;;;;50.33;26.02;;;;;;;;;;5023024;28;20694;-85
2021/10/28 01:04:16;;;;;;;43.85;22.48;;;;;;;;;;5022374;28;20084;-85
2021/10/28 01:06:46;;;;;;;47.90;24.77;;;;;;;;;;5021729;28;20060;-86
2021/10/28 01:09:13;;;;;;;48.08;24.75;;;;;;;;;;5022409;28;20046;-85
2021/10/28 01:11:43;;;;;;;46.47;23.67;;;;;;;;;;5022264;28;20046;-85
2021/10/28 01:14:22;;;;;;;51.55;25.60;;;;;;;;;;5021835;28;20049;-85
2021/10/28 01:16:55;;;;;;;47.63;23.02;;;;;;;;;;5021258;28;20046;-85
2021/10/28 01:19:25;;;;;;;48.15;24.48;;;;;;;;;;5022064;28;20110;-86
2021/10/28 01:21:56;;;;;;;45.42;23.30;;;;;;;;;;5021056;28;20045;-86
2021/10/28 01:24:28;;;;;;;45.55;22.55;;;;;;;;;;5021008;28;20431;-86
2021/10/28 01:27:07;;;;;;;51.00;24.83;;;;;;;;;;5021778;28;20109;-86
2021/10/28 01:29:41;;;;;;;47.22;23.92;;;;;;;;;;5021597;28;20056;-85
2021/10/28 01:32:11;;;;;;;45.20;22.50;;;;;;;;;;5020638;28;20053;-86
2021/10/28 01:34:43;;;;;;;48.10;25.42;;;;;;;;;;5021455;28;20106;-87
2021/10/28 01:37:15;;;;;;;44.22;22.02;;;;;;;;;;5022107;28;20050;-86
2021/10/28 01:39:46;;;;;;;44.53;23.48;;;;;;;;;;5038750;28;20038;-86
2021/10/28 01:42:20;;;;;;;43.97;21.73;;;;;;;;;;5038796;28;20069;-86
2021/10/28 01:44:48;;;;;;;41.20;21.85;;;;;;;;;;5033214;28;20059;-86
2021/10/28 01:47:20;;;;;;;38.55;22.45;;;;;;;;;;5022372;28;20058;-85
2021/10/28 01:49:50;;;;;;;39.05;21.40;;;;;;;;;;5020865;28;20509;-85
2021/10/28 01:52:21;;;;;;;43.63;23.50;;;;;;;;;;5022002;28;20046;-84
2021/10/28 01:54:48;;;;;;;40.63;21.80;;;;;;;;;;5021290;28;20042;-84
2021/10/28 01:57:19;;;;;;;43.05;23.20;;;;;;;;;;5019830;28;20054;-85
2021/10/28 01:59:48;;;;;;;;;;;;;;;;;;5025379;28;20052;-83
2021/10/28 02:02:14;;;;;;;41.72;20.90;;;;;;;;;;5023826;28;20455;-85
2021/10/28 02:04:44;;;;;;;42.17;20.88;;;;;;;;;;5020497;28;20076;-85
2021/10/28 02:07:13;;;;;;;43.28;23.08;;;;;;;;;;5020361;28;20435;-85
2021/10/28 02:09:48;;;;;;;43.50;22.73;;;;;;;;;;5019971;28;20049;-84
2021/10/28 02:12:15;;;;;;;45.10;22.33;;;;;;;;;;5020979;28;20121;-84
2021/10/28 02:14:45;;;;;;;41.72;20.77;;;;;;;;;;5020294;28;20293;-84
2021/10/28 02:17:15;;;;;;;44.88;22.25;;;;;;;;;;5020428;28;20054;-84
2021/10/28 02:19:42;;;;;;;42.78;22.92;;;;;;;;;;5020375;28;20061;-85
2021/10/28 02:22:12;;;;;;;45.40;21.88;;;;;;;;;;5019674;28;20042;-85
2021/10/28 02:24:51;;;;;;;43.65;22.20;;;;;;;;;;5018345;28;20416;-84
2021/10/28 02:27:24;;;;;;;48.08;22.45;;;;;;;;;;5018701;28;20092;-84
2021/10/28 02:30:08;;;;;;;45.80;22.65;;;;;;;;;;5018889;28;20104;-85
2021/10/28 02:32:36;;;;;;;44.55;21.80;;;;;;;;;;5018302;28;20056;-85
2021/10/28 02:35:07;;;;;;;45.38;22.40;;;;;;;;;;5017872;28;20053;-85
2021/10/28 02:37:37;;;;;;;43.50;21.65;;;;;;;;;;5020450;28;20046;-83
2021/10/28 02:40:29;;;;;;;47.58;23.30;;;;;;;;;;5032545;28;20054;-84
2021/10/28 02:42:56;;;;;;;43.50;21.92;;;;;;;;;;5034953;28;20046;-84
2021/10/28 02:45:33;;;;;;;47.40;24.42;;;;;;;;;;5036654;28;20045;-84
2021/10/28 02:48:00;;;;;;;45.70;23.00;;;;;;;;;;5022604;28;20096;-84
2021/10/28 02:50:30;;;;;;;47.45;22.67;;;;;;;;;;5019826;28;20456;-84
2021/10/28 02:53:00;;;;;;;50.20;25.83;;;;;;;;;;5016459;28;20469;-85
2021/10/28 02:55:32;;;;;;;48.92;25.27;;;;;;;;;;5015210;28;20045;-84
2021/10/28 02:57:59;;;;;;;50.13;23.50;;;;;;;;;;5014767;28;20053;-84
2021/10/28 03:00:39;;;;;;;57.17;26.60;;;;;;;;;;5014826;28;20058;-83
2021/10/28 03:03:09;;;;;;;54.45;24.95;;;;;;;;;;5020354;28;20408;-84
2021/10/28 03:05:37;;;;;;;50.58;24.60;;;;;;;;;;5017386;28;20053;-85
2021/10/28 03:08:15;;;;;;;55.13;24.88;;;;;;;;;;5019008;28;20469;-84
2021/10/28 03:10:44;;;;;;;57.97;26.23;;;;;;;;;;5017955;28;20108;-84
2021/10/28 03:13:17;;;;;;;52.92;24.42;;;;;;;;;;5026870;28;20113;-84
2021/10/28 03:15:48;;;;;;;55.50;26.60;;;;;;;;;;5028089;28;20053;-84
2021/10/28 03:26:51;;;;;;;49.67;23.83;;;;;;;;;;5016580;28;20063;-85
2021/10/28 03:29:19;;;;;;;49.38;23.63;;;;;;;;;;5016330;28;20049;-84
2021/10/28 03:31:47;;;;;;;53.55;24.02;;;;;;;;;;5017046;28;20042;-84
2021/10/28 03:34:20;;;;;;;46.78;23.23;;;;;;;;;;5017135;28;20137;-84
2021/10/28 03:36:58;;;;;;;49.70;24.95;;;;;;;;;;5015609;28;20056;-85
2021/10/28 03:39:44;;;;;;;55.30;24.38;;;;;;;;;;5016530;28;20104;-85
2021/10/28 04:01:42;;;;;;;51.85;23.42;;;;;;;;;;5013119;28;20456;-83
2021/10/28 04:04:40;;;;;;;49.05;24.70;;;;;;;;;;5016368;28;20045;-84
2021/10/28 04:21:07;;;;;;;49.20;21.67;;;;;;;;;;5021020;28;20061;-83
2021/10/28 04:29:04;;;;;;;47.38;22.77;;;;;;;;;;5018848;28;20100;-83
2021/10/28 04:31:36;;;;;;;45.70;22.73;;;;;;;;;;5018977;28;20052;-84
2021/10/28 04:34:07;;;;;;;48.95;23.15;;;;;;;;;;5018564;28;20196;-84
2021/10/28 04:36:35;;;;;;;48.00;24.33;;;;;;;;;;5021119;28;20046;-83
2021/10/28 04:39:05;;;;;;;50.13;24.80;;;;;;;;;;5034731;28;20096;-82
2021/10/28 04:41:35;;;;;;;49.65;23.67;;;;;;;;;;5030978;28;20137;-84
2021/10/28 04:44:07;;;;;;;45.20;23.00;;;;;;;;;;5023872;28;20046;-84
2021/10/28 04:46:37;;;;;;;48.55;21.52;;;;;;;;;;5024216;28;20106;-84
2021/10/28 04:49:09;;;;;;;53.75;23.35;;;;;;;;;;5027775;28;20054;-83
2021/10/28 04:51:37;;;;;;;49.83;23.48;;;;;;;;;;5022146;28;20050;-86
2021/10/28 04:54:04;;;;;;;55.10;24.52;;;;;;;;;;5020934;28;20386;-83
2021/10/28 04:56:33;;;;;;;60.22;25.00;;;;;;;;;;5017777;28;20073;-83
2021/10/28 04:59:00;;;;;;;55.88;25.13;;;;;;;;;;5018118;28;20054;-85
2021/10/28 05:01:27;;;;;;;51.28;24.25;;;;;;;;;;5027537;28;20060;-85
2021/10/28 05:03:56;;;;;;;51.47;22.95;;;;;;;;;;5017157;28;20054;-84
2021/10/28 05:06:26;;;;;;;48.17;23.00;;;;;;;;;;5017518;28;20048;-84
2021/10/28 05:08:54;;;;;;;;;;;;;;;;;;5031957;28;20076;-84
2021/10/28 05:11:23;;;;;;;46.28;21.67;;;;;;;;;;5032139;28;19922;-84
2021/10/28 05:13:52;;;;;;;44.90;21.52;;;;;;;;;;5031120;28;20054;-83
2021/10/28 05:16:20;;;;;;;41.97;18.88;;;;;;;;;;5029173;28;20049;-84
2021/10/28 05:18:50;;;;;;;43.05;20.02;;;;;;;;;;5020841;28;20050;-84
2021/10/28 05:21:20;;;;;;;44.33;19.67;;;;;;;;;;5020570;28;20053;-84
2021/10/28 05:23:48;;;;;;;44.95;21.27;;;;;;;;;;5023711;28;20126;-85
2021/10/28 05:26:15;;;;;;;44.60;19.60;;;;;;;;;;5020866;28;20072;-85
2021/10/28 05:28:42;;;;;;;43.22;19.58;;;;;;;;;;5020772;28;20046;-85
2021/10/28 05:31:12;;;;;;;45.08;19.80;;;;;;;;;;5021326;28;20050;-85
2021/10/28 05:33:42;;;;;;;44.63;20.30;;;;;;;;;;5019347;28;20053;-85
2021/10/28 05:36:09;;;;;;;43.75;20.10;;;;;;;;;;5019951;28;20041;-85
2021/10/28 05:38:38;;;;;;;47.83;21.23;;;;;;;;;;5020242;28;20070;-85
2021/10/28 05:41:09;;;;;;;47.17;21.25;;;;;;;;;;5019174;28;20046;-84
2021/10/28 05:43:36;;;;;;;45.75;19.65;;;;;;;;;;5028537;28;20050;-83
2021/10/28 05:46:06;;;;;;;47.75;20.60;;;;;;;;;;5022947;28;20060;-83
2021/10/28 05:48:33;;;;;;;47.25;21.02;;;;;;;;;;5026907;28;20137;-83
2021/10/28 05:51:01;;;;;;;46.83;20.65;;;;;;;;;;5028542;28;20030;-83
2021/10/28 05:53:29;;;;;;;43.33;19.35;;;;;;;;;;5025516;28;20128;-85
2021/10/28 05:55:58;;;;;;;49.60;23.10;;;;;;;;;;5026389;28;20481;-83
2021/10/28 05:58:25;;;;;;;44.33;20.13;;;;;;;;;;5021755;28;20054;-84
2021/10/28 06:00:52;;;;;;;42.33;19.23;;;;;;;;;;5022413;28;20046;-83
2021/10/28 06:03:19;;;;;;;48.97;21.42;;;;;;;;;;5027451;28;20070;-83
2021/10/28 06:05:46;;;;;;;48.20;21.42;;;;;;;;;;5035743;28;20081;-83
2021/10/28 06:08:13;;;;;;;44.28;20.63;;;;;;;;;;5038498;28;20174;-84
2021/10/28 06:10:40;;;;;;;52.88;21.38;;;;;;;;;;5037174;28;20084;-84
2021/10/28 06:13:08;;;;;;;47.92;21.83;;;;;;;;;;5020479;28;20076;-84
2021/10/28 06:15:38;;;;;;;47.28;20.90;;;;;;;;;;5018582;28;20196;-84
2021/10/28 06:18:35;;;;;;;50.30;22.10;;;;;;;;;;5018116;28;20050;-84
2021/10/28 06:21:00;;;;;;;53.78;23.20;;;;;;;;;;5017194;28;20042;-84
2021/10/28 06:23:27;;;;;;;52.92;21.88;;;;;;;;;;5017195;28;20054;-82
2021/10/28 06:25:54;;;;;;;45.85;21.52;;;;;;;;;;5018692;28;20416;-83
2021/10/28 06:28:23;;;;;;;54.83;23.27;;;;;;;;;;5020452;28;20045;-84
2021/10/28 06:30:51;;;;;;;50.63;21.45;;;;;;;;;;5024524;28;20054;-85
2021/10/28 06:33:20;;;;;;;49.65;21.75;;;;;;;;;;5024438;28;20054;-84
2021/10/28 06:35:47;;;;;;;52.05;21.60;;;;;;;;;;5023444;28;20100;-84
2021/10/28 06:38:14;;;;;;;49.95;22.08;;;;;;;;;;5025287;28;20056;-83
2021/10/28 06:40:42;;;;;;;52.92;23.17;;;;;;;;;;5021116;28;20053;-83
2021/10/28 06:43:11;;;;;;;49.92;21.50;;;;;;;;;;5021069;28;20492;-84
2021/10/28 06:45:39;;;;;;;48.92;22.42;;;;;;;;;;5022745;28;20137;-84
2021/10/28 06:48:07;;;;;;;52.60;21.63;;;;;;;;;;5019066;28;20042;-84
2021/10/28 06:50:40;;;;;;;53.42;22.13;;;;;;;;;;5016277;28;20054;-83
2021/10/28 06:53:12;;;;;;;49.08;19.90;;;;;;;;;;5018653;28;20060;-84
2021/10/28 06:55:47;;;;;;;52.70;21.70;;;;;;;;;;5021440;28;20073;-84
2021/10/28 07:03:44;;;;;;;51.15;23.10;;;;;;;;;;5028381;28;20128;-84
2021/10/28 07:06:12;;;;;;;51.33;23.67;;;;;;;;;;5029211;28;20050;-83
2021/10/28 07:08:42;;;;;;;53.30;22.02;;;;;;;;;;5029227;28;20078;-84
2021/10/28 07:11:12;;;;;;;50.17;20.15;;;;;;;;;;5024520;28;20065;-84
2021/10/28 07:13:41;;;;;;;44.40;20.30;;;;;;;;;;5020888;28;20074;-83
2021/10/28 07:16:22;;;;;;;48.95;22.20;;;;;;;;;;5026567;28;20287;-84
2021/10/28 07:18:55;;;;;;;51.70;22.67;;;;;;;;;;5025410;28;20050;-83
2021/10/28 07:24:31;;;;;;;47.30;20.05;;;;;;;;;;4987934;28;20064;-84
2021/10/28 07:33:08;;;;;;;61.17;29.15;;;;;;;;;;5083856;27;20724;-62
2021/10/28 07:57:59;;;;;;;52.65;22.85;;;;;;;;;;4987209;28;20054;-63
2021/10/28 08:04:40;;;;;;;55.38;24.02;;;;;;;;;;5062399;28;20409;-63
2021/10/28 08:17:38;;;;;;;52.30;23.00;;;;;;;;;;5042325;28;20137;-67
2021/10/28 08:20:12;;;;;;;55.85;24.65;;;;;;;;;;5063308;28;20048;-67
2021/10/28 08:22:42;;;;;;;56.50;23.17;;;;;;;;;;5063073;28;20084;-65
2021/10/28 08:30:39;;;;;;;47.63;20.45;;;;;;;;;;5062178;28;20114;-63
2021/10/28 08:33:07;;;;;;;44.00;19.65;;;;;;;;;;5062221;28;20115;-64
2021/10/28 08:35:36;;;;;;;48.20;22.63;;;;;;;;;;5061498;28;20052;-63
2021/10/28 08:38:07;;;;;;;43.17;20.10;;;;;;;;;;5061912;28;20056;-63
2021/10/28 08:40:35;;;;;;;44.60;20.95;;;;;;;;;;5061247;28;20053;-62
2021/10/28 08:43:03;;;;;;;45.30;21.42;;;;;;;;;;5054826;28;20429;-63
2021/10/28 08:45:35;;;;;;;49.97;22.73;;;;;;;;;;5048689;28;20059;-64
2021/10/28 08:48:05;;;;;;;52.35;22.75;;;;;;;;;;5048626;28;20482;-63
2021/10/28 08:50:37;;;;;;;50.60;23.70;;;;;;;;;;5048048;28;20202;-63
2021/10/28 08:53:28;;;;;;;48.83;21.95;;;;;;;;;;5047286;28;20081;-63
2021/10/28 08:55:59;;;;;;;50.72;24.73;;;;;;;;;;5047785;28;20458;-63
2021/10/28 09:23:58;;;;;;;47.33;23.60;;;;;;;;;;5048611;28;20098;-64
2021/10/28 09:26:41;;;;;;;48.17;21.35;;;;;;;;;;5048782;28;20707;-64
2021/10/28 09:29:17;;;;;;;44.45;21.85;;;;;;;;;;5048599;28;20045;-62
2021/10/28 09:31:55;;;;;;;60.63;28.95;;;;;;;;;;5048015;28;20076;-63
2021/10/28 09:34:50;;;;;;;50.95;24.33;;;;;;;;;;5048691;28;20045;-61
2021/10/28 09:46:12;;;;;;;51.17;23.73;;;;;;;;;;5048372;28;20115;-63
2021/10/28 09:51:38;;;;;;;48.53;24.00;;;;;;;;;;4972200;28;20054;-65
2021/10/28 09:54:11;;;;;;;49.42;23.58;;;;;;;;;;5047605;28;20161;-63
2021/10/28 09:59:33;;;;;;;51.35;25.05;;;;;;;;;;5049287;28;20067;-64
2021/10/28 10:02:14;;;;;;;51.28;22.05;;;;;;;;;;5048351;28;20053;-63
2021/10/28 10:04:47;;;;;;;50.95;22.85;;;;;;;;;;5048651;28;20569;-63
2021/10/28 10:07:16;;;;;;;48.67;24.40;;;;;;;;;;5047906;28;20048;-63
2021/10/28 10:09:43;;;;;;;56.70;26.13;;;;;;;;;;5047837;28;20047;-63
2021/10/28 10:12:14;;;;;;;63.85;30.60;;;;;;;;;;5047850;28;20135;-62
2021/10/28 10:14:44;;;;;;;51.33;23.30;;;;;;;;;;5047743;28;20612;-63
2021/10/28 10:17:17;;;;;;;53.40;24.30;;;;;;;;;;5047368;28;20052;-63
2021/10/28 10:19:48;;;;;;;53.63;25.05;;;;;;;;;;5047884;28;20085;-64
2021/10/28 10:25:06;;;;;;;59.50;25.50;;;;;;;;;;4987451;28;20526;-57
2021/10/28 12:45:56;;;;;;;41.70;22.77;;;;;;;;;;5000976;28;20084;-57
2021/10/28 12:51:40;;;;;;;45.22;23.38;;;;;;;;;;4997111;28;20305;-59
2021/10/28 13:03:26;;;;;;;43.08;21.80;;;;;;;;;;4989814;28;20089;-59
2021/10/28 13:37:41;;;;;;;41.35;22.30;;;;;;;;;;4998544;28;20589;-59
2021/10/28 13:50:12;;;;;;;40.95;22.15;;;;;;;;;;4997269;28;20068;-60
2021/10/28 13:58:29;;;;;;;41.03;23.30;;;;;;;;;;4992383;28;20139;-59
2021/10/28 14:23:18;;;;;;;35.10;20.92;;;;;;;;;;4996594;28;20115;-59
2021/10/28 14:31:58;;;;;;;40.20;21.10;;;;;;;;;;4985750;28;20061;-59
2021/10/28 14:37:29;;;;;;;35.03;20.13;;;;;;;;;;4986104;28;20406;-58
2021/10/28 15:02:37;;;;;;;38.90;20.17;;;;;;;;;;4996169;28;20127;-58
2021/10/28 15:29:58;;;;;;;32.65;19.33;;;;;;;;;;5011198;28;20418;-59
2021/10/28 15:35:22;;;;;;;;;;;;;;;;;;5010991;28;20096;-58
2021/10/28 15:38:05;;;;;;;34.10;17.98;;;;;;;;;;5010567;28;20272;-59
2021/10/28 15:40:42;;;;;;;36.05;18.25;;;;;;;;;;5010354;28;20108;-60
2021/10/28 15:57:37;;;;;;;39.13;21.58;;;;;;;;;;4940589;28;20048;-60
2021/10/28 16:22:13;;;;;;;39.75;21.83;;;;;;;;;;5013904;28;20553;-59
2021/10/28 16:24:42;;;;;;;36.47;20.67;;;;;;;;;;5004234;28;20821;-57
2021/10/28 16:27:10;;;;;;;41.30;21.23;;;;;;;;;;5001569;28;20402;-58
2021/10/28 16:29:37;;;;;;;35.42;21.17;;;;;;;;;;4998532;28;20046;-55
2021/10/28 16:32:05;;;;;;;39.88;20.52;;;;;;;;;;5000281;28;20052;-57
2021/10/28 16:34:32;;;;;;;38.20;21.85;;;;;;;;;;5000712;28;20058;-60
2021/10/28 16:36:59;;;;;;;41.35;20.85;;;;;;;;;;5000774;28;20066;-60
2021/10/28 16:39:27;;;;;;;41.22;21.45;;;;;;;;;;4999992;28;20061;-57
2021/10/28 16:41:57;;;;;;;44.35;22.10;;;;;;;;;;5000296;28;20043;-56
2021/10/28 16:44:25;;;;;;;;;;;;;;;;;;5000090;28;20519;-57
2021/10/28 16:46:53;;;;;;;46.67;24.13;;;;;;;;;;4998953;28;20351;-60
2021/10/28 16:49:22;;;;;;;45.28;22.70;;;;;;;;;;4998071;28;20054;-58
2021/10/28 16:51:49;;;;;;;45.97;22.50;;;;;;;;;;5000818;28;20058;-58
2021/10/28 16:54:18;;;;;;;41.70;23.30;;;;;;;;;;4999419;28;20606;-56
2021/10/28 16:56:45;;;;;;;50.90;24.02;;;;;;;;;;5000907;28;20049;-58
2021/10/28 16:59:14;;;;;;;47.53;25.13;;;;;;;;;;4999545;28;20050;-57
2021/10/28 17:01:42;;;;;;;40.55;21.85;;;;;;;;;;5001048;28;20517;-58
2021/10/28 17:04:09;;;;;;;43.55;22.85;;;;;;;;;;4997339;28;20050;-62
2021/10/28 17:06:36;;;;;;;44.10;21.65;;;;;;;;;;5000934;28;20053;-57
2021/10/28 17:09:07;;;;;;;76.93;39.75;;;;;;;;;;4999166;28;20065;-59
2021/10/28 17:11:34;;;;;;;;;;;;;;;;;;5000401;28;20571;-60
2021/10/28 17:14:02;;;;;;;53.85;28.15;;;;;;;;;;5006594;28;19921;-59
2021/10/28 17:16:31;;;;;;;54.60;27.67;;;;;;;;;;5013196;28;20046;-59
2021/10/28 17:18:59;;;;;;;47.03;25.27;;;;;;;;;;5012914;28;20060;-60
2021/10/28 17:21:26;;;;;;;46.85;24.48;;;;;;;;;;5012693;28;20053;-60
2021/10/28 17:24:00;;;;;;;45.10;23.05;;;;;;;;;;5012727;28;20045;-60
2021/10/28 17:26:28;;;;;;;54.13;23.27;;;;;;;;;;5012972;28;20447;-60
2021/10/28 17:28:59;;;;;;;46.95;23.85;;;;;;;;;;5012592;28;20483;-60
2021/10/28 17:31:26;;;;;;;;;;;;;;;;;;5010624;28;20055;-59
2021/10/28 17:33:56;;;;;;;45.72;22.60;;;;;;;;;;4997238;28;20294;-57
2021/10/28 17:36:25;;;;;;;45.55;23.58;;;;;;;;;;4993149;28;20062;-58
2021/10/28 17:38:52;;;;;;;47.17;23.70;;;;;;;;;;4993108;28;20050;-58
2021/10/28 17:41:20;;;;;;;51.13;25.45;;;;;;;;;;4993557;28;20050;-58
2021/10/28 17:43:51;;;;;;;43.55;23.02;;;;;;;;;;4993310;28;20481;-58
2021/10/28 17:46:18;;;;;;;;;;;;;;;;;;4993742;28;20101;-58
2021/10/28 17:48:45;;;;;;;49.72;24.73;;;;;;;;;;4992683;28;19933;-56
2021/10/28 17:51:14;;;;;;;44.30;23.00;;;;;;;;;;4992711;28;20054;-58
2021/10/28 17:53:43;;;;;;;45.35;22.52;;;;;;;;;;4992597;28;20404;-56
2021/10/28 17:56:12;;;;;;;44.30;22.77;;;;;;;;;;4992605;28;20141;-59
2021/10/28 17:58:39;;;;;;;46.10;23.00;;;;;;;;;;4992357;28;20082;-59
2021/10/28 18:01:06;;;;;;;43.05;21.35;;;;;;;;;;4992657;28;20058;-59
2021/10/28 18:03:34;;;;;;;38.47;21.27;;;;;;;;;;4992716;28;20061;-58
2021/10/28 18:06:01;;;;;;;41.20;22.55;;;;;;;;;;4992172;28;20054;-59
2021/10/28 18:08:29;;;;;;;42.65;21.58;;;;;;;;;;4993710;28;20053;-61
2021/10/28 18:10:56;;;;;;;43.97;22.85;;;;;;;;;;4997422;28;20073;-58
2021/10/28 18:13:24;;;;;;;45.08;24.77;;;;;;;;;;5006288;28;20042;-58
2021/10/28 18:15:52;;;;;;;49.58;24.20;;;;;;;;;;4991593;28;20050;-56
2021/10/28 18:18:19;;;;;;;47.88;23.88;;;;;;;;;;4998581;28;20137;-59
2021/10/28 18:20:47;;;;;;;48.70;24.67;;;;;;;;;;5011069;28;20049;-64
2021/10/28 18:23:14;;;;;;;44.47;23.48;;;;;;;;;;5002715;28;20049;-60
2021/10/28 18:25:43;;;;;;;45.45;23.92;;;;;;;;;;5002270;28;20072;-62
2021/10/28 18:28:10;;;;;;;45.33;23.15;;;;;;;;;;4997295;28;20046;-60
2021/10/28 18:30:37;;;;;;;45.63;23.88;;;;;;;;;;4996590;28;20058;-60
2021/10/28 18:33:05;;;;;;;45.55;23.60;;;;;;;;;;5002828;28;20239;-61
2021/10/28 18:35:32;;;;;;;45.63;23.92;;;;;;;;;;5001156;28;20057;-61
2021/10/28 18:37:59;;;;;;;44.30;23.83;;;;;;;;;;4997995;28;20411;-59
2021/10/28 18:40:27;;;;;;;49.55;24.08;;;;;;;;;;5000479;28;20046;-65
2021/10/28 18:42:55;;;;;;;52.63;25.48;;;;;;;;;;4994480;28;20042;-63
2021/10/28 18:45:22;;;;;;;48.88;22.60;;;;;;;;;;4997080;28;20048;-60
2021/10/28 18:47:51;;;;;;;46.40;22.80;;;;;;;;;;4997506;28;20073;-61
2021/10/28 18:50:18;;;;;;;42.70;22.77;;;;;;;;;;4997248;28;20053;-61
2021/10/28 18:52:45;;;;;;;44.97;21.60;;;;;;;;;;4996745;28;20068;-60
2021/10/28 18:55:12;;;;;;;47.50;24.45;;;;;;;;;;4997630;28;20419;-61
2021/10/28 18:57:39;;;;;;;51.28;26.77;;;;;;;;;;4996667;28;20054;-59
2021/10/28 19:00:10;;;;;;;59.40;29.98;;;;;;;;;;4996546;28;20478;-61
2021/10/28 19:02:38;;;;;;;44.97;24.02;;;;;;;;;;4996257;28;20144;-60
2021/10/28 19:05:06;;;;;;;43.05;23.08;;;;;;;;;;4996934;28;20046;-61
2021/10/28 19:07:33;;;;;;;45.42;23.55;;;;;;;;;;4996508;28;20141;-58
2021/10/28 19:10:00;;;;;;;44.42;23.92;;;;;;;;;;4997176;28;20046;-61
2021/10/28 19:12:27;;;;;;;49.17;24.08;;;;;;;;;;4996611;28;20484;-60
2021/10/28 19:14:55;;;;;;;41.20;21.67;;;;;;;;;;4996942;28;20056;-61
2021/10/28 19:17:23;;;;;;;47.45;24.25;;;;;;;;;;4996445;28;20470;-61
2021/10/28 19:19:50;;;;;;;44.72;22.63;;;;;;;;;;4997097;28;20097;-63
2021/10/28 19:22:17;;;;;;;46.70;23.98;;;;;;;;;;4996671;28;20125;-61
2021/10/28 19:24:45;;;;;;;47.65;23.67;;;;;;;;;;4996463;28;20149;-60
2021/10/28 19:27:12;;;;;;;45.78;21.88;;;;;;;;;;4997019;28;20495;-60
2021/10/28 19:29:45;;;;;;;48.45;22.77;;;;;;;;;;4995953;28;20054;-61
2021/10/28 19:32:16;;;;;;;44.22;22.60;;;;;;;;;;4997869;28;20050;-60
2021/10/28 19:34:45;;;;;;;44.92;23.63;;;;;;;;;;4996128;28;20057;-60
2021/10/28 19:37:16;;;;;;;43.83;23.10;;;;;;;;;;4996470;28;20453;-61
2021/10/28 19:48:12;;;;;;;45.47;21.60;;;;;;;;;;5112540;28;20066;-61
2021/10/28 19:50:39;;;;;;;43.33;22.20;;;;;;;;;;5107641;28;20040;-61
2021/10/28 19:53:06;;;;;;;40.92;21.55;;;;;;;;;;5094531;28;20040;-61
2021/10/28 19:55:34;;;;;;;47.40;24.17;;;;;;;;;;5092422;28;20054;-58
2021/10/28 19:58:02;;;;;;;44.38;22.42;;;;;;;;;;5094145;28;20519;-58
2021/10/28 20:00:33;;;;;;;47.05;23.15;;;;;;;;;;5095340;28;20040;-59
2021/10/28 20:03:22;;;;;;;39.67;21.08;;;;;;;;;;5095317;28;20441;-59
2021/10/28 20:06:03;;;;;;;44.03;21.88;;;;;;;;;;5094494;28;20051;-57
2021/10/28 20:14:15;;;;;;;42.60;22.38;;;;;;;;;;5098248;28;20059;-59
2021/10/28 20:22:11;;;;;;;43.00;21.95;;;;;;;;;;5093109;28;20332;-58
2021/10/28 20:24:38;;;;;;;38.22;19.92;;;;;;;;;;5095833;28;20061;-56
2021/10/28 20:27:05;;;;;;;40.08;22.45;;;;;;;;;;5094891;28;20059;-56
2021/10/28 20:29:34;;;;;;;39.10;21.08;;;;;;;;;;5095995;28;20574;-58
2021/10/28 20:32:01;;;;;;;40.35;21.27;;;;;;;;;;5096498;28;20052;-58
2021/10/28 20:34:31;;;;;;;44.25;22.23;;;;;;;;;;5093770;28;20051;-60
2021/10/28 20:37:08;;;;;;;37.72;19.80;;;;;;;;;;5097252;28;20054;-58
2021/10/28 20:39:37;;;;;;;41.55;21.35;;;;;;;;;;5095686;28;20248;-58
2021/10/28 20:42:05;;;;;;;39.92;21.00;;;;;;;;;;5093552;28;20048;-57
2021/10/28 20:44:34;;;;;;;36.65;20.40;;;;;;;;;;5093872;28;20049;-60
2021/10/28 20:47:01;;;;;;;39.58;21.55;;;;;;;;;;5093933;28;20416;-59
2021/10/28 20:49:29;;;;;;;36.75;19.88;;;;;;;;;;5090783;28;20048;-57
2021/10/28 20:51:56;;;;;;;39.38;22.05;;;;;;;;;;5093819;28;20070;-59
2021/10/28 20:54:24;;;;;;;40.30;21.52;;;;;;;;;;5078731;28;20413;-58
2021/10/28 20:56:52;;;;;;;45.92;22.13;;;;;;;;;;5078926;28;20495;-61
2021/10/28 20:59:20;;;;;;;41.78;21.35;;;;;;;;;;5076080;28;20049;-58
2021/10/28 21:01:48;;;;;;;40.75;21.10;;;;;;;;;;5083892;28;20055;-60
2021/10/28 21:04:15;;;;;;;35.55;20.67;;;;;;;;;;5078409;28;20049;-57
2021/10/28 21:06:42;;;;;;;40.92;21.13;;;;;;;;;;5079910;28;20040;-57
2021/10/28 21:09:09;;;;;;;40.60;20.55;;;;;;;;;;5081303;28;20043;-59
2021/10/28 21:11:37;;;;;;;40.03;21.17;;;;;;;;;;5077893;28;20855;-58
2021/10/28 21:14:05;;;;;;;38.40;19.75;;;;;;;;;;5079361;28;20048;-59
2021/10/28 21:16:32;;;;;;;39.08;20.67;;;;;;;;;;5080844;28;20044;-58
2021/10/28 21:19:00;;;;;;;39.03;21.10;;;;;;;;;;5081338;28;20040;-58
2021/10/28 21:21:27;;;;;;;42.15;21.33;;;;;;;;;;5082128;28;20070;-59
2021/10/28 21:23:54;;;;;;;37.22;19.48;;;;;;;;;;5083429;28;20074;-57
2021/10/28 21:26:21;;;;;;;38.10;20.48;;;;;;;;;;5080498;28;20043;-59
2021/10/28 21:28:48;;;;;;;37.72;19.85;;;;;;;;;;5082647;28;20063;-60
2021/10/28 21:31:15;;;;;;;42.78;20.48;;;;;;;;;;5082211;28;20052;-59
2021/10/28 21:33:42;;;;;;;38.85;20.27;;;;;;;;;;5077576;28;20397;-61
2021/10/28 21:36:11;;;;;;;37.58;20.65;;;;;;;;;;5080024;28;20424;-55
2021/10/28 21:38:38;;;;;;;40.00;19.25;;;;;;;;;;5076455;28;20048;-59
2021/10/28 21:41:05;;;;;;;41.30;20.77;;;;;;;;;;5081250;28;20041;-58
2021/10/28 21:43:33;;;;;;;57.72;26.50;;;;;;;;;;5080363;28;20059;-61
2021/10/28 21:46:01;;;;;;;52.35;25.48;;;;;;;;;;5080624;28;20055;-61
2021/10/28 21:48:29;;;;;;;48.85;23.90;;;;;;;;;;5080432;28;20416;-60
2021/10/28 21:50:59;;;;;;;53.15;25.58;;;;;;;;;;5081768;28;20110;-58
2021/10/28 21:53:31;;;;;;;42.45;20.55;;;;;;;;;;5080134;28;20337;-60
2021/10/28 21:56:08;;;;;;;40.65;19.42;;;;;;;;;;5079310;28;20123;-59
2021/10/28 21:58:47;;;;;;;41.85;20.33;;;;;;;;;;5079696;28;20224;-58
2021/10/28 22:01:19;;;;;;;42.10;19.55;;;;;;;;;;5085287;28;20048;-56
2021/10/28 22:25:44;;;;;;;39.10;18.52;;;;;;;;;;5092858;28;20051;-61
2021/10/28 22:28:11;;;;;;;35.03;17.17;;;;;;;;;;5093011;28;20094;-60
2021/10/28 22:30:38;;;;;;;37.65;18.20;;;;;;;;;;5092781;28;20048;-61
2021/10/28 22:33:05;;;;;;;35.10;18.52;;;;;;;;;;5092965;28;20447;-60
2021/10/28 22:35:36;;;;;;;40.58;19.00;;;;;;;;;;5092445;28;20059;-61
2021/10/28 22:38:05;;;;;;;45.25;20.42;;;;;;;;;;5092805;28;20055;-61
2021/10/28 22:40:34;;;;;;;36.08;17.77;;;;;;;;;;5092544;28;20059;-61
2021/10/28 22:43:04;;;;;;;37.63;18.77;;;;;;;;;;5092740;28;20489;-61
2021/10/28 22:45:32;;;;;;;33.83;17.40;;;;;;;;;;5092373;28;20059;-61
2021/10/28 22:47:59;;;;;;;33.83;16.90;;;;;;;;;;5092644;28;20708;-61
2021/10/28 22:50:26;;;;;;;37.33;18.52;;;;;;;;;;5092198;28;20413;-61
2021/10/28 22:52:55;;;;;;;35.13;17.67;;;;;;;;;;5092463;28;20052;-61
2021/10/28 22:55:24;;;;;;;34.10;17.75;;;;;;;;;;5092078;28;20047;-61
2021/10/28 22:57:55;;;;;;;33.97;17.80;;;;;;;;;;5092224;28;20098;-60
2021/10/28 23:00:37;;;;;;;33.40;17.33;;;;;;;;;;5092331;28;20060;-61
2021/10/28 23:03:09;;;;;;;40.15;18.70;;;;;;;;;;5092411;28;20170;-61
2021/10/28 23:05:56;;;;;;;37.90;17.67;;;;;;;;;;5092154;28;20537;-61
2021/10/28 23:14:05;;;;;;;37.40;18.17;;;;;;;;;;5092418;28;20492;-61
2021/10/28 23:16:46;;;;;;;;;;;;;;;;;;5092534;28;20082;-61
2021/10/28 23:21:57;;;;;;;37.80;18.20;;;;;;;;;;5091968;28;20081;-61
2021/10/28 23:24:24;;;;;;;34.35;18.05;;;;;;;;;;5092124;28;20078;-61